Airfield :
LOGIN :

Register | Disclaimer

   EN    FR    IT 

 










Legend :    VFR   Marginal VFR   IFR   Intensive IFR   Very Intensive IFR
Visi :
Ceiling :
>= 8 km
>= 3000ft
5 to 8 km
1000 to 3000 ft
1500m to 5 km
500 to 1000 ft
800 to 1500m
200 to 500 ft
< 800m
< 200 ft
Symbols :   Thunderstorms  Fog  Heavy snow  Heavy precipitations  Wind > 20 kt
SIGMETs :     Misc.  Thunderstorms  Icing  Turbulence  Mountain Waves  Volcanic Ashes






- Airport Elevation : 1895 ft


LSMM - Meiringen

CURRENT METAR :
  • 261050Z AUTO 00000KT 0100NDV R10/0150N R28/0100N FG VV001 M05/M05 Q1032 RMK

EXPIRED METARs :
  • 260950Z VRB02KT 0200 R10/0175V0500D R28/P2000N FG NSC M06/M06 Q1032 RMK RED
  • 260920Z 00000KT 8000 1000W R10/0650V1200U R28/P2000U BR NSC M07/M07 Q1032
  • 260850Z 00000KT 9999 R10/1300N R28/P2000U PRFG NSC M07/M08 Q1032 RMK BLU
  • 260820Z VRB01KT 9999 4000W BR FEW001 M08/M08 Q1032

Expired Forecast.



MET'MAP, your aeronautical weather chart ! - Copyright ORBIFLY December 2007 - Disclaimer

ORBIFLY MET'MAP TEAM :

Programming & Development : Alexandra Zaïnal
Original concept : Baudouin d'Aumeries
Technical & hardware support : Manuel Goepfert
Assistance : Marc-Olivier Méhu

Contact : metmap@orbifly.com




SOURCES & CREDITS :

   NOAA